createdAt,value
2023-04-30T00:00:36.986Z,97.33
2023-04-30T00:01:38.996Z,97.05
2023-04-30T00:02:40.888Z,97.28
2023-04-30T00:03:42.972Z,96.85
2023-04-30T00:04:45.080Z,97.10
2023-04-30T00:05:50.266Z,97.15
2023-04-30T00:06:52.138Z,97.00
2023-04-30T00:07:54.040Z,96.83
2023-04-30T00:08:55.944Z,96.72
2023-04-30T00:09:58.181Z,96.88
2023-04-30T00:11:00.019Z,96.78
2023-04-30T00:12:02.037Z,96.77
2023-04-30T00:13:03.881Z,97.84
2023-04-30T00:14:05.709Z,98.16
2023-04-30T00:15:07.860Z,98.58
2023-04-30T00:16:10.010Z,98.33
2023-04-30T00:17:11.864Z,98.47
2023-04-30T00:18:13.751Z,98.42
2023-04-30T00:19:15.694Z,98.30
2023-04-30T00:20:18.203Z,98.53
2023-04-30T00:21:20.111Z,98.51
2023-04-30T00:22:22.055Z,98.51
2023-04-30T00:23:23.885Z,99.21
2023-04-30T00:24:25.728Z,99.52
2023-04-30T00:25:27.594Z,99.96
2023-04-30T00:26:29.423Z,99.85
2023-04-30T00:27:32.212Z,99.53
2023-04-30T00:28:34.058Z,99.44
2023-04-30T00:29:36.029Z,99.06
2023-04-30T00:30:37.888Z,98.94
2023-04-30T00:31:39.832Z,99.22
2023-04-30T00:32:41.722Z,98.63
2023-04-30T00:33:43.636Z,98.62
2023-04-30T00:34:46.260Z,98.38
2023-04-30T00:35:48.087Z,98.36
2023-04-30T00:36:49.971Z,97.87
2023-04-30T00:37:51.821Z,97.31
2023-04-30T00:38:53.786Z,96.89
2023-04-30T00:39:55.827Z,96.91
2023-04-30T00:40:57.916Z,96.97
2023-04-30T00:41:59.776Z,96.56
2023-04-30T00:43:01.822Z,96.90
2023-04-30T00:44:03.695Z,95.20
2023-04-30T00:45:05.847Z,94.90
2023-04-30T00:46:07.758Z,94.95
2023-04-30T00:47:09.629Z,95.09
2023-04-30T00:48:11.626Z,95.59
2023-04-30T00:49:13.701Z,94.42
2023-04-30T00:50:16.377Z,94.40
2023-04-30T00:51:18.415Z,94.96
2023-04-30T00:52:20.300Z,95.04
2023-04-30T00:53:22.320Z,95.58
2023-04-30T00:54:24.885Z,94.98
2023-04-30T00:55:27.105Z,95.40
2023-04-30T00:56:29.412Z,95.12
2023-04-30T00:57:31.415Z,94.95
2023-04-30T00:58:33.871Z,95.01
2023-04-30T00:59:35.919Z,95.27
2023-04-30T01:00:37.721Z,95.45
2023-04-30T01:01:39.961Z,95.95
2023-04-30T01:02:41.903Z,95.61
2023-04-30T01:03:43.999Z,95.46
2023-04-30T01:04:46.850Z,95.68
2023-04-30T01:05:48.824Z,95.50
2023-04-30T01:06:50.850Z,95.69
2023-04-30T01:07:54.304Z,95.73
2023-04-30T01:08:57.618Z,95.85
2023-04-30T01:09:59.621Z,95.05
2023-04-30T01:11:13.832Z,95.48
2023-04-30T01:12:21.779Z,94.92
2023-04-30T01:13:30.489Z,95.20
2023-04-30T01:14:38.463Z,94.44
2023-04-30T01:15:46.654Z,94.73
2023-04-30T01:17:06.228Z,95.01
2023-04-30T01:18:19.152Z,94.52
2023-04-30T01:19:29.795Z,95.09
2023-04-30T01:20:32.567Z,94.86
2023-04-30T01:21:36.855Z,95.09
2023-04-30T01:22:58.897Z,95.86
2023-04-30T01:24:16.367Z,95.22
2023-04-30T01:25:18.307Z,95.44
2023-04-30T01:26:26.317Z,94.84
2023-04-30T01:27:46.970Z,94.35
2023-04-30T01:28:50.634Z,94.28
2023-04-30T01:29:53.763Z,94.04
2023-04-30T01:30:56.131Z,94.02
2023-04-30T01:31:58.008Z,94.33
2023-04-30T01:33:00.077Z,95.02
2023-04-30T01:34:01.956Z,95.38
2023-04-30T01:35:03.926Z,95.57
2023-04-30T01:36:09.132Z,95.09
2023-04-30T01:37:43.887Z,94.70
2023-04-30T01:38:52.803Z,94.11
2023-04-30T01:40:02.429Z,94.35
2023-04-30T01:41:19.749Z,93.56
2023-04-30T01:42:22.698Z,93.93
2023-04-30T01:43:53.532Z,93.35
2023-04-30T01:45:01.241Z,93.54
2023-04-30T01:46:03.146Z,93.22
2023-04-30T01:47:06.865Z,92.65
2023-04-30T01:48:19.158Z,92.93
2023-04-30T01:49:43.006Z,93.17
2023-04-30T01:50:49.740Z,93.42
2023-04-30T01:51:56.320Z,93.45
2023-04-30T01:53:02.503Z,93.20
2023-04-30T01:54:09.522Z,93.65
2023-04-30T01:55:16.930Z,93.66
2023-04-30T01:56:21.943Z,93.71
2023-04-30T01:57:32.748Z,93.56
2023-04-30T01:58:35.867Z,94.03
2023-04-30T01:59:39.496Z,94.05
2023-04-30T02:00:41.689Z,94.32
2023-04-30T02:01:43.550Z,93.97
2023-04-30T02:02:45.747Z,94.42
2023-04-30T02:03:47.730Z,94.10
2023-04-30T02:04:49.987Z,94.38
2023-04-30T02:05:51.785Z,94.19
2023-04-30T02:06:53.737Z,94.25
2023-04-30T02:07:55.652Z,94.01
2023-04-30T02:09:02.745Z,93.94
2023-04-30T02:10:05.415Z,93.84
2023-04-30T02:11:07.221Z,94.14
2023-04-30T02:12:09.089Z,94.34
2023-04-30T02:13:11.034Z,94.18
2023-04-30T02:14:12.845Z,93.96
2023-04-30T02:15:15.489Z,93.71
2023-04-30T02:16:17.394Z,93.49
2023-04-30T02:17:19.303Z,93.60
2023-04-30T02:18:21.261Z,93.27
2023-04-30T02:19:23.118Z,93.43
2023-04-30T02:20:25.097Z,94.01
2023-04-30T02:21:27.629Z,94.66
2023-04-30T02:22:29.502Z,94.64
2023-04-30T02:23:31.304Z,94.12
2023-04-30T02:24:33.180Z,94.33
2023-04-30T02:25:38.134Z,94.71
2023-04-30T02:26:39.958Z,94.88
2023-04-30T02:27:41.914Z,94.16
2023-04-30T02:28:43.801Z,94.13
2023-04-30T02:29:45.734Z,94.33
2023-04-30T02:30:47.593Z,93.84
2023-04-30T02:31:49.562Z,94.16
2023-04-30T02:32:51.436Z,93.71
2023-04-30T02:33:53.538Z,93.92
2023-04-30T02:34:55.425Z,93.42
2023-04-30T02:35:58.682Z,93.89
2023-04-30T02:37:01.171Z,93.25
2023-04-30T02:38:03.024Z,93.48
2023-04-30T02:39:05.234Z,93.68
2023-04-30T02:40:07.586Z,93.85
2023-04-30T02:41:09.517Z,93.96
2023-04-30T02:42:11.474Z,93.78
2023-04-30T02:43:13.242Z,93.37
2023-04-30T02:44:15.113Z,93.74
2023-04-30T02:45:16.931Z,93.36
2023-04-30T02:46:19.495Z,93.14
2023-04-30T02:47:21.515Z,93.56
2023-04-30T02:48:23.349Z,93.45
2023-04-30T02:49:25.152Z,93.37
2023-04-30T02:50:27.017Z,93.10
2023-04-30T02:51:29.005Z,93.18
2023-04-30T02:52:30.827Z,93.15
2023-04-30T02:53:32.684Z,93.17
2023-04-30T02:54:34.481Z,93.15
2023-04-30T02:55:36.471Z,93.06
2023-04-30T02:56:39.698Z,93.39
2023-04-30T02:57:41.768Z,93.30
2023-04-30T02:58:43.684Z,93.41
2023-04-30T02:59:46.531Z,93.47
2023-04-30T03:00:48.444Z,93.13
2023-04-30T03:01:50.438Z,93.35
2023-04-30T03:02:52.474Z,93.45
2023-04-30T03:03:54.479Z,93.56
2023-04-30T03:04:56.331Z,93.61
2023-04-30T03:05:59.769Z,93.54
2023-04-30T03:07:01.801Z,93.52
2023-04-30T03:08:03.666Z,93.50
2023-04-30T03:09:05.628Z,94.02
2023-04-30T03:10:07.931Z,94.13
2023-04-30T03:11:09.793Z,94.88
2023-04-30T03:12:11.757Z,94.82
2023-04-30T03:13:13.814Z,94.46
2023-04-30T03:14:16.192Z,94.61
2023-04-30T03:15:18.097Z,94.43
2023-04-30T03:16:21.099Z,94.39
2023-04-30T03:17:25.078Z,94.57
2023-04-30T03:18:29.993Z,94.72
2023-04-30T03:19:32.324Z,94.84
2023-04-30T03:20:34.186Z,95.22
2023-04-30T03:21:36.232Z,95.26
2023-04-30T03:22:38.098Z,95.22
2023-04-30T03:23:40.012Z,94.85
2023-04-30T03:24:42.118Z,94.23
2023-04-30T03:25:44.408Z,94.54
2023-04-30T03:26:46.674Z,94.30
2023-04-30T03:27:48.793Z,94.04
2023-04-30T03:28:50.761Z,94.03
2023-04-30T03:29:52.847Z,93.33
2023-04-30T03:30:55.022Z,93.63
2023-04-30T03:31:56.982Z,93.45
2023-04-30T03:32:58.932Z,93.04
2023-04-30T03:34:00.846Z,92.86
2023-04-30T03:35:02.793Z,93.36
2023-04-30T03:36:04.857Z,93.06
2023-04-30T03:37:06.746Z,93.48
2023-04-30T03:38:08.622Z,93.49
2023-04-30T03:39:10.543Z,93.68
2023-04-30T03:40:12.610Z,93.91
2023-04-30T03:41:14.467Z,93.56
2023-04-30T03:42:16.355Z,93.74
2023-04-30T03:43:18.229Z,93.18
2023-04-30T03:44:20.132Z,93.44
2023-04-30T03:45:21.972Z,93.09
2023-04-30T03:46:23.902Z,93.56
2023-04-30T03:47:25.855Z,93.63
2023-04-30T03:48:27.815Z,93.78
2023-04-30T03:49:29.721Z,93.57
2023-04-30T03:50:31.585Z,93.14
2023-04-30T03:51:33.426Z,92.97
2023-04-30T03:52:36.995Z,93.59
2023-04-30T03:53:38.907Z,93.10
2023-04-30T03:54:40.929Z,93.64
2023-04-30T03:55:42.955Z,93.57
2023-04-30T03:56:44.847Z,93.57
2023-04-30T03:57:46.742Z,93.68
2023-04-30T03:58:48.713Z,93.54
2023-04-30T03:59:50.980Z,93.32
2023-04-30T04:00:52.981Z,93.23
2023-04-30T04:01:54.827Z,92.85
2023-04-30T04:02:58.110Z,92.94
2023-04-30T04:04:00.058Z,93.13
2023-04-30T04:05:02.235Z,92.87
2023-04-30T04:06:05.281Z,93.05
2023-04-30T04:07:10.107Z,92.98
2023-04-30T04:08:11.932Z,92.73
2023-04-30T04:09:13.926Z,92.81
2023-04-30T04:10:15.858Z,92.76
2023-04-30T04:11:17.692Z,93.05
2023-04-30T04:12:19.522Z,92.85
2023-04-30T04:13:21.484Z,92.81
2023-04-30T04:14:23.458Z,93.40
2023-04-30T04:15:25.310Z,93.46
2023-04-30T04:16:27.257Z,93.20
2023-04-30T04:17:29.218Z,93.19
2023-04-30T04:18:31.168Z,93.46
2023-04-30T04:19:33.099Z,93.52
2023-04-30T04:20:34.991Z,92.99
2023-04-30T04:21:37.140Z,93.50
2023-04-30T04:22:38.956Z,93.19
2023-04-30T04:23:40.828Z,93.49
2023-04-30T04:24:42.790Z,93.53
2023-04-30T04:25:44.649Z,93.34
2023-04-30T04:26:48.121Z,93.67
2023-04-30T04:27:50.082Z,93.66
2023-04-30T04:28:52.310Z,93.93
2023-04-30T04:29:55.369Z,93.55
2023-04-30T04:30:57.959Z,93.20
2023-04-30T04:32:03.317Z,93.65
2023-04-30T04:33:06.344Z,93.19
2023-04-30T04:34:08.704Z,93.55
2023-04-30T04:35:10.619Z,93.66
2023-04-30T04:36:12.471Z,93.40
2023-04-30T04:37:14.533Z,92.99
2023-04-30T04:38:16.419Z,92.91
2023-04-30T04:39:18.277Z,93.43
2023-04-30T04:40:20.097Z,93.22
2023-04-30T04:41:23.318Z,93.03
2023-04-30T04:42:25.186Z,93.39
2023-04-30T04:43:27.157Z,93.21
2023-04-30T04:44:29.543Z,93.26
2023-04-30T04:45:32.233Z,93.31
2023-04-30T04:46:38.788Z,93.30
2023-04-30T04:47:40.712Z,93.28
2023-04-30T04:48:43.281Z,93.37
2023-04-30T04:49:45.182Z,93.47
2023-04-30T04:50:47.065Z,92.96
2023-04-30T04:51:48.978Z,93.47
2023-04-30T04:52:50.816Z,92.83
2023-04-30T04:53:52.685Z,93.24
2023-04-30T04:54:54.568Z,93.05
2023-04-30T04:55:57.131Z,93.11
2023-04-30T04:56:59.082Z,93.44
2023-04-30T04:58:01.073Z,93.85
2023-04-30T04:59:03.035Z,94.70
2023-04-30T05:00:08.239Z,94.74
2023-04-30T05:01:10.762Z,94.40
2023-04-30T05:02:12.655Z,94.75
2023-04-30T05:03:15.316Z,94.58
2023-04-30T05:04:17.228Z,94.37
2023-04-30T05:05:19.139Z,94.71
2023-04-30T05:06:21.130Z,94.47
2023-04-30T05:07:23.074Z,94.26
2023-04-30T05:08:25.137Z,94.41
2023-04-30T05:09:26.987Z,94.49
2023-04-30T05:10:28.884Z,94.73
2023-04-30T05:11:30.844Z,94.78
2023-04-30T05:12:32.842Z,94.26
2023-04-30T05:13:34.692Z,94.30
2023-04-30T05:14:37.680Z,94.18
2023-04-30T05:15:39.524Z,94.70
2023-04-30T05:16:41.510Z,94.80
2023-04-30T05:17:43.557Z,95.28
2023-04-30T05:18:45.393Z,95.28
2023-04-30T05:19:49.310Z,95.05
2023-04-30T05:20:51.195Z,94.82
2023-04-30T05:21:53.146Z,94.90
2023-04-30T05:22:55.122Z,94.72
2023-04-30T05:23:57.008Z,94.65
2023-04-30T05:24:58.791Z,94.29
2023-04-30T05:26:00.778Z,94.64
2023-04-30T05:27:05.894Z,94.70
2023-04-30T05:28:07.792Z,94.33
2023-04-30T05:29:10.842Z,94.17
2023-04-30T05:30:12.815Z,93.94
2023-04-30T05:31:14.690Z,94.04
2023-04-30T05:32:16.725Z,93.50
2023-04-30T05:33:18.663Z,93.71
2023-04-30T05:34:20.473Z,93.02
2023-04-30T05:35:22.393Z,93.58
2023-04-30T05:36:24.293Z,93.71
2023-04-30T05:37:26.203Z,93.50
2023-04-30T05:38:28.393Z,92.84
2023-04-30T05:39:30.220Z,93.48
2023-04-30T05:40:32.375Z,93.05
2023-04-30T05:41:34.242Z,93.29
2023-04-30T05:42:36.658Z,93.54
2023-04-30T05:43:38.604Z,93.61
2023-04-30T05:44:41.403Z,93.94
2023-04-30T05:45:43.388Z,94.02
2023-04-30T05:46:45.295Z,93.54
2023-04-30T05:47:47.239Z,93.89
2023-04-30T05:48:49.181Z,93.48
2023-04-30T05:49:51.102Z,93.46
2023-04-30T05:50:52.925Z,92.95
2023-04-30T05:51:54.750Z,93.33
2023-04-30T05:52:56.644Z,92.74
2023-04-30T05:53:58.581Z,92.84
2023-04-30T05:55:00.445Z,93.41
2023-04-30T05:56:02.585Z,93.49
2023-04-30T05:57:04.566Z,93.73
2023-04-30T05:58:06.777Z,93.22
2023-04-30T05:59:08.661Z,93.37
2023-04-30T06:00:11.167Z,93.59
2023-04-30T06:01:13.137Z,93.96
2023-04-30T06:02:15.301Z,94.36
2023-04-30T06:03:17.314Z,94.37
2023-04-30T06:04:19.224Z,94.42
2023-04-30T06:05:21.222Z,94.56
2023-04-30T06:06:23.152Z,94.73
2023-04-30T06:07:25.053Z,94.61
2023-04-30T06:08:26.854Z,94.31
2023-04-30T06:09:28.785Z,94.51
2023-04-30T06:10:31.133Z,94.31
2023-04-30T06:11:33.024Z,94.50
2023-04-30T06:12:34.926Z,94.87
2023-04-30T06:13:36.978Z,94.61
2023-04-30T06:14:38.974Z,94.16
2023-04-30T06:15:42.029Z,94.36
2023-04-30T06:16:45.431Z,93.98
2023-04-30T06:17:47.395Z,93.66
2023-04-30T06:18:50.363Z,93.87
2023-04-30T06:19:53.406Z,94.03
2023-04-30T06:20:55.434Z,94.19
2023-04-30T06:21:57.295Z,94.05
2023-04-30T06:23:00.331Z,93.64
2023-04-30T06:24:02.148Z,93.60
2023-04-30T06:25:04.181Z,93.45
2023-04-30T06:26:06.096Z,93.34
2023-04-30T06:27:08.008Z,93.30
2023-04-30T06:28:10.336Z,93.03
2023-04-30T06:29:12.212Z,92.80
2023-04-30T06:30:14.106Z,92.79
2023-04-30T06:31:16.225Z,92.81
2023-04-30T06:32:18.141Z,92.55
2023-04-30T06:33:20.125Z,92.45
2023-04-30T06:34:22.086Z,92.25
2023-04-30T06:35:24.781Z,92.15
2023-04-30T06:36:26.661Z,92.34
2023-04-30T06:37:28.614Z,91.79
2023-04-30T06:38:30.408Z,92.01
2023-04-30T06:39:32.248Z,91.69
2023-04-30T06:40:34.262Z,91.16
2023-04-30T06:41:36.223Z,91.01
2023-04-30T06:42:38.100Z,91.55
2023-04-30T06:43:39.956Z,90.91
2023-04-30T06:44:41.829Z,91.63
2023-04-30T06:45:43.941Z,91.56
2023-04-30T06:46:45.968Z,91.36
2023-04-30T06:47:48.163Z,91.41
2023-04-30T06:48:50.085Z,90.94
2023-04-30T06:49:51.892Z,91.19
2023-04-30T06:50:53.726Z,91.20
2023-04-30T06:51:56.907Z,90.62
2023-04-30T06:52:58.806Z,90.83
2023-04-30T06:54:01.087Z,90.15
2023-04-30T06:55:03.051Z,90.79
2023-04-30T06:56:05.028Z,90.50
2023-04-30T06:57:07.427Z,90.58
2023-04-30T06:58:09.325Z,89.91
2023-04-30T06:59:11.090Z,90.43
2023-04-30T07:00:15.403Z,90.47
2023-04-30T07:01:17.888Z,90.25
2023-04-30T07:02:21.945Z,89.83
2023-04-30T07:03:24.358Z,90.28
2023-04-30T07:04:26.561Z,89.89
2023-04-30T07:05:28.782Z,89.45
2023-04-30T07:06:30.933Z,89.28
2023-04-30T07:07:32.969Z,89.67
2023-04-30T07:08:34.795Z,89.43
2023-04-30T07:09:36.806Z,89.46
2023-04-30T07:10:38.675Z,88.83
2023-04-30T07:11:40.567Z,88.79
2023-04-30T07:12:42.581Z,89.17
2023-04-30T07:13:44.725Z,88.20
2023-04-30T07:14:46.605Z,87.80
2023-04-30T07:15:48.548Z,87.99
2023-04-30T07:16:51.092Z,86.92
2023-04-30T07:17:53.091Z,87.08
2023-04-30T07:18:55.012Z,87.25
2023-04-30T07:19:57.189Z,86.19
2023-04-30T07:20:59.347Z,85.64
2023-04-30T07:22:01.447Z,86.41
2023-04-30T07:23:03.495Z,86.27
2023-04-30T07:24:05.646Z,85.53
2023-04-30T07:25:07.929Z,86.07
2023-04-30T07:26:09.820Z,84.93
2023-04-30T07:27:11.975Z,83.99
2023-04-30T07:28:13.810Z,83.93
2023-04-30T07:29:15.788Z,84.25
2023-04-30T07:30:17.763Z,84.69
2023-04-30T07:31:19.692Z,85.23
2023-04-30T07:32:22.590Z,85.70
2023-04-30T07:33:24.585Z,86.10
2023-04-30T07:34:26.954Z,86.08
2023-04-30T07:35:28.900Z,86.17
2023-04-30T07:36:31.268Z,85.86
2023-04-30T07:37:35.466Z,85.89
2023-04-30T07:38:37.926Z,85.72
2023-04-30T07:39:39.979Z,86.48
2023-04-30T07:40:41.835Z,86.41
2023-04-30T07:41:43.772Z,86.85
2023-04-30T07:42:45.704Z,86.57
2023-04-30T07:43:47.632Z,86.68
2023-04-30T07:44:49.536Z,87.01
2023-04-30T07:45:51.480Z,86.96
2023-04-30T07:46:53.393Z,86.44
2023-04-30T07:47:55.322Z,86.43
2023-04-30T07:48:57.272Z,87.13
2023-04-30T07:49:59.233Z,87.01
2023-04-30T07:51:01.323Z,86.32
2023-04-30T07:52:03.856Z,86.26
2023-04-30T07:53:09.955Z,86.24
2023-04-30T07:54:11.850Z,85.55
2023-04-30T07:55:13.759Z,84.82
2023-04-30T07:56:16.410Z,84.87
2023-04-30T07:57:18.382Z,84.49
2023-04-30T07:58:20.210Z,84.61
2023-04-30T07:59:24.688Z,84.20
2023-04-30T08:00:26.788Z,84.24
2023-04-30T08:01:28.923Z,83.97
2023-04-30T08:02:31.149Z,84.42
2023-04-30T08:03:33.602Z,84.50
2023-04-30T08:04:35.818Z,83.82
2023-04-30T08:05:37.652Z,83.63
2023-04-30T08:06:39.651Z,83.56
2023-04-30T08:07:42.156Z,83.21
2023-04-30T08:08:44.046Z,82.62
2023-04-30T08:09:46.186Z,82.87
2023-04-30T08:10:48.000Z,83.04
2023-04-30T08:11:49.906Z,82.33
2023-04-30T08:12:51.961Z,81.65
2023-04-30T08:13:54.301Z,81.22
2023-04-30T08:15:04.448Z,81.89
2023-04-30T08:16:06.383Z,82.35
2023-04-30T08:17:08.224Z,82.12
2023-04-30T08:18:10.168Z,82.54
2023-04-30T08:19:12.247Z,82.34
2023-04-30T08:20:14.244Z,81.00
2023-04-30T08:21:18.265Z,81.37
2023-04-30T08:22:20.111Z,80.72
2023-04-30T08:23:21.940Z,79.92
2023-04-30T08:24:24.078Z,80.40
2023-04-30T08:25:26.142Z,80.42
2023-04-30T08:26:28.105Z,79.76
2023-04-30T08:27:31.859Z,79.62
2023-04-30T08:28:33.667Z,79.79
2023-04-30T08:29:35.611Z,80.44
2023-04-30T08:30:37.516Z,80.17
2023-04-30T08:31:39.470Z,80.24
2023-04-30T08:32:41.804Z,80.19
2023-04-30T08:33:43.724Z,80.07
2023-04-30T08:34:45.618Z,80.28
2023-04-30T08:35:47.640Z,80.46
2023-04-30T08:36:49.580Z,80.36
2023-04-30T08:37:51.815Z,76.42
2023-04-30T08:38:53.732Z,76.02
2023-04-30T08:39:55.875Z,76.16
2023-04-30T08:41:11.867Z,76.69
2023-04-30T08:42:15.317Z,77.86
2023-04-30T08:43:18.639Z,78.61
2023-04-30T08:44:22.170Z,78.93
2023-04-30T08:45:24.541Z,78.30
2023-04-30T08:46:27.282Z,78.28
2023-04-30T08:47:29.396Z,77.91
2023-04-30T08:48:32.098Z,77.58
2023-04-30T08:49:34.022Z,76.88
2023-04-30T08:50:36.022Z,78.00
2023-04-30T08:51:38.724Z,77.90
2023-04-30T08:52:42.487Z,77.47
2023-04-30T08:53:44.954Z,76.97
2023-04-30T08:54:47.975Z,75.70
2023-04-30T08:55:49.817Z,74.67
2023-04-30T08:56:51.787Z,74.47
2023-04-30T08:57:53.907Z,75.44
2023-04-30T08:58:55.790Z,76.29
2023-04-30T08:59:57.799Z,75.61
2023-04-30T09:01:00.223Z,75.96
2023-04-30T09:02:02.596Z,76.02
2023-04-30T09:03:05.248Z,76.82
2023-04-30T09:04:07.293Z,74.96
2023-04-30T09:05:11.703Z,76.27
2023-04-30T09:06:17.649Z,76.99
2023-04-30T09:07:21.055Z,75.53
2023-04-30T09:08:42.264Z,76.32
2023-04-30T09:09:44.118Z,76.74
2023-04-30T09:10:46.786Z,74.66
2023-04-30T09:11:48.610Z,71.41
2023-04-30T09:13:00.642Z,75.66
2023-04-30T09:14:02.742Z,74.35
2023-04-30T09:15:05.751Z,75.38
2023-04-30T09:16:07.730Z,74.54
2023-04-30T09:17:09.621Z,72.33
2023-04-30T09:18:12.019Z,73.86
2023-04-30T09:19:27.412Z,73.47
2023-04-30T09:20:29.610Z,72.41
2023-04-30T09:21:37.419Z,72.56
2023-04-30T09:22:39.914Z,73.10
2023-04-30T09:24:01.808Z,70.50
2023-04-30T09:25:03.837Z,70.72
2023-04-30T09:26:05.745Z,71.55
2023-04-30T09:27:16.157Z,71.66
2023-04-30T09:28:18.918Z,68.43
2023-04-30T09:29:20.823Z,68.54
2023-04-30T09:30:33.161Z,69.42
2023-04-30T09:31:36.633Z,71.65
2023-04-30T09:32:54.914Z,70.80
2023-04-30T09:33:56.814Z,69.45
2023-04-30T09:34:58.739Z,67.66
2023-04-30T09:36:08.815Z,65.66
2023-04-30T09:37:12.014Z,66.11
2023-04-30T09:38:34.269Z,66.68
2023-04-30T09:39:47.073Z,68.11
2023-04-30T09:40:49.360Z,69.41
2023-04-30T09:41:52.346Z,70.21
2023-04-30T09:42:58.929Z,69.13
2023-04-30T09:44:00.929Z,69.54
2023-04-30T09:45:05.077Z,69.04
2023-04-30T09:46:07.042Z,69.17
2023-04-30T09:47:15.563Z,68.07
2023-04-30T09:48:24.051Z,66.15
2023-04-30T09:49:26.802Z,68.42
2023-04-30T09:50:37.434Z,67.24
2023-04-30T09:51:53.879Z,69.96
2023-04-30T09:53:05.557Z,69.84
2023-04-30T09:54:08.195Z,70.26
2023-04-30T09:55:10.285Z,69.24
2023-04-30T09:56:13.291Z,69.13
2023-04-30T09:57:16.430Z,69.03
2023-04-30T09:58:19.168Z,68.97
2023-04-30T09:59:26.858Z,68.49
2023-04-30T10:00:28.778Z,67.41
2023-04-30T10:01:31.143Z,68.66
2023-04-30T10:02:33.821Z,69.38
2023-04-30T10:03:35.912Z,68.58
2023-04-30T10:04:38.573Z,67.68
2023-04-30T10:05:47.484Z,67.92
2023-04-30T10:06:53.077Z,67.56
2023-04-30T10:07:55.419Z,68.47
2023-04-30T10:08:57.941Z,69.12
2023-04-30T10:10:03.696Z,67.02
2023-04-30T10:11:06.436Z,66.36
2023-04-30T10:12:15.036Z,67.25
2023-04-30T10:13:18.676Z,66.68
2023-04-30T10:14:21.519Z,66.36
2023-04-30T10:15:28.920Z,67.07
2023-04-30T10:16:44.140Z,66.73
2023-04-30T10:17:50.845Z,66.32
2023-04-30T10:18:53.582Z,66.94
2023-04-30T10:19:58.109Z,66.81
2023-04-30T10:21:03.502Z,66.65
2023-04-30T10:22:05.489Z,64.81
2023-04-30T10:23:08.810Z,65.30
2023-04-30T10:24:11.883Z,64.71
2023-04-30T10:25:13.838Z,63.01
2023-04-30T10:26:17.208Z,63.56
2023-04-30T10:27:19.494Z,65.04
2023-04-30T10:28:22.496Z,65.26
2023-04-30T10:29:24.326Z,65.22
2023-04-30T10:30:26.465Z,63.00
2023-04-30T10:31:29.449Z,62.78
2023-04-30T10:32:34.664Z,64.17
2023-04-30T10:33:50.131Z,63.77
2023-04-30T10:35:08.514Z,65.27
2023-04-30T10:36:13.652Z,65.57
2023-04-30T10:37:22.865Z,63.98
2023-04-30T10:38:26.943Z,63.59
2023-04-30T10:39:29.516Z,63.14
2023-04-30T10:40:36.069Z,62.68
2023-04-30T10:41:37.929Z,63.28
2023-04-30T10:42:45.544Z,63.17
2023-04-30T10:43:47.703Z,63.27
2023-04-30T10:44:49.634Z,62.71
2023-04-30T10:45:51.942Z,61.86
2023-04-30T10:47:01.226Z,61.80
2023-04-30T10:48:03.506Z,61.45
2023-04-30T10:49:05.690Z,63.22
2023-04-30T10:50:11.056Z,63.25
2023-04-30T10:51:12.952Z,63.54
2023-04-30T10:52:14.854Z,61.77
2023-04-30T10:53:18.769Z,63.75
2023-04-30T10:54:31.596Z,63.63
2023-04-30T10:55:34.178Z,63.92
2023-04-30T10:56:36.800Z,62.11
2023-04-30T10:57:43.245Z,62.17
2023-04-30T10:58:45.747Z,63.42
2023-04-30T10:59:50.675Z,61.33
2023-04-30T11:01:01.314Z,59.97
2023-04-30T11:02:03.760Z,62.67
2023-04-30T11:03:05.914Z,62.73
2023-04-30T11:04:09.132Z,62.81
2023-04-30T11:05:12.412Z,64.00
2023-04-30T11:06:15.656Z,64.05
2023-04-30T11:07:17.577Z,62.85
2023-04-30T11:08:21.397Z,61.58
2023-04-30T11:09:39.532Z,57.28
2023-04-30T11:10:57.314Z,58.17
2023-04-30T11:12:11.039Z,60.49
2023-04-30T11:13:14.362Z,56.47
2023-04-30T11:14:21.073Z,56.86
2023-04-30T11:15:26.566Z,56.82
2023-04-30T11:16:32.221Z,57.33
2023-04-30T11:17:35.058Z,54.63
2023-04-30T11:18:44.545Z,52.64
2023-04-30T11:19:48.513Z,55.03
2023-04-30T11:20:53.757Z,57.30
2023-04-30T11:22:04.777Z,57.15
2023-04-30T11:23:19.719Z,56.57
2023-04-30T11:24:45.571Z,53.99
2023-04-30T11:25:47.964Z,54.06
2023-04-30T11:27:04.097Z,53.56
2023-04-30T11:28:06.168Z,55.14
2023-04-30T11:29:08.038Z,55.10
2023-04-30T11:30:16.181Z,55.59
2023-04-30T11:31:18.639Z,59.09
2023-04-30T11:32:21.747Z,56.88
2023-04-30T11:33:24.390Z,58.72
2023-04-30T11:34:26.840Z,57.06
2023-04-30T11:35:28.986Z,58.58
2023-04-30T11:36:31.194Z,57.84
2023-04-30T11:37:34.234Z,55.94
2023-04-30T11:38:36.796Z,57.96
2023-04-30T11:39:39.978Z,58.15
2023-04-30T11:40:42.898Z,57.54
2023-04-30T11:41:44.828Z,57.03
2023-04-30T11:42:48.615Z,57.06
2023-04-30T11:43:50.449Z,56.25
2023-04-30T11:44:52.392Z,55.89
2023-04-30T11:46:14.670Z,56.14
2023-04-30T11:47:16.495Z,55.10
2023-04-30T11:48:18.423Z,53.71
2023-04-30T11:49:23.078Z,54.30
2023-04-30T11:50:29.754Z,54.59
2023-04-30T11:51:31.832Z,55.36
2023-04-30T11:52:33.652Z,56.47
2023-04-30T11:53:35.620Z,55.19
2023-04-30T11:54:38.308Z,53.41
2023-04-30T11:55:42.190Z,54.08
2023-04-30T11:56:50.300Z,55.40
2023-04-30T11:57:56.262Z,54.58
2023-04-30T11:58:58.273Z,53.46
2023-04-30T12:00:07.877Z,54.49
2023-04-30T12:01:11.126Z,54.79
2023-04-30T12:02:15.850Z,54.76
2023-04-30T12:03:18.004Z,51.38
2023-04-30T12:04:20.331Z,49.13
2023-04-30T12:05:26.983Z,48.98
2023-04-30T12:06:29.522Z,51.03
2023-04-30T12:07:31.545Z,48.12
2023-04-30T12:08:33.443Z,50.63
2023-04-30T12:09:51.992Z,50.88
2023-04-30T12:10:53.976Z,52.23
2023-04-30T12:11:55.845Z,51.50
2023-04-30T12:12:57.690Z,48.88
2023-04-30T12:14:04.194Z,49.21
2023-04-30T12:15:12.971Z,50.47
2023-04-30T12:16:14.917Z,51.69
2023-04-30T12:17:30.833Z,51.18
2023-04-30T12:18:33.631Z,50.05
2023-04-30T12:19:35.431Z,47.79
2023-04-30T12:20:37.850Z,47.07
2023-04-30T12:21:41.491Z,45.41
2023-04-30T12:22:44.236Z,51.43
2023-04-30T12:23:46.133Z,47.00
2023-04-30T12:24:48.087Z,43.55
2023-04-30T12:25:50.006Z,47.77
2023-04-30T12:26:53.748Z,47.33
2023-04-30T12:27:55.941Z,47.32
2023-04-30T12:28:57.818Z,46.80
2023-04-30T12:30:02.615Z,47.09
2023-04-30T12:31:06.940Z,48.05
2023-04-30T12:32:08.908Z,47.88
2023-04-30T12:33:11.569Z,46.00
2023-04-30T12:34:14.354Z,46.87
2023-04-30T12:35:17.368Z,47.42
2023-04-30T12:36:19.311Z,47.65
2023-04-30T12:37:21.238Z,47.88
2023-04-30T12:38:23.791Z,48.15
2023-04-30T12:39:26.422Z,47.02
2023-04-30T12:40:28.570Z,48.71
2023-04-30T12:41:30.472Z,45.83
2023-04-30T12:42:36.028Z,47.36
2023-04-30T12:43:38.087Z,48.03
2023-04-30T12:44:45.178Z,47.31
2023-04-30T12:45:51.957Z,47.10
2023-04-30T12:46:56.659Z,47.73
2023-04-30T12:47:58.539Z,46.85
2023-04-30T12:49:00.913Z,47.19
2023-04-30T12:50:03.756Z,48.82
2023-04-30T12:51:07.045Z,47.86
2023-04-30T12:52:09.977Z,45.96
2023-04-30T12:53:11.933Z,46.42
2023-04-30T12:54:13.812Z,48.14
2023-04-30T12:55:18.832Z,45.13
2023-04-30T12:56:22.829Z,46.14
2023-04-30T12:57:24.710Z,45.05
2023-04-30T12:58:31.233Z,46.52
2023-04-30T12:59:38.336Z,47.85
2023-04-30T13:00:50.300Z,48.78
2023-04-30T13:01:52.413Z,48.11
2023-04-30T13:02:54.350Z,47.09
2023-04-30T13:03:56.541Z,45.07
2023-04-30T13:04:58.519Z,45.83
2023-04-30T13:06:03.066Z,44.71
2023-04-30T13:07:05.388Z,43.38
2023-04-30T13:08:08.043Z,45.51
2023-04-30T13:09:11.142Z,43.00
2023-04-30T13:10:13.838Z,43.99
2023-04-30T13:11:15.790Z,43.28
2023-04-30T13:12:17.759Z,45.69
2023-04-30T13:13:20.661Z,46.36
2023-04-30T13:14:22.492Z,48.35
2023-04-30T13:15:24.423Z,47.85
2023-04-30T13:16:26.621Z,47.53
2023-04-30T13:17:29.271Z,47.76
2023-04-30T13:18:31.186Z,47.07
2023-04-30T13:19:33.230Z,48.55
2023-04-30T13:20:37.732Z,46.49
2023-04-30T13:21:39.541Z,48.25
2023-04-30T13:22:41.409Z,47.51
2023-04-30T13:23:52.102Z,49.04
2023-04-30T13:24:55.683Z,47.47
2023-04-30T13:25:57.596Z,45.89
2023-04-30T13:26:59.596Z,46.48
2023-04-30T13:28:01.590Z,47.32
2023-04-30T13:29:04.494Z,46.01
2023-04-30T13:30:06.696Z,42.95
2023-04-30T13:31:08.655Z,44.20
2023-04-30T13:32:10.565Z,43.90
2023-04-30T13:33:13.037Z,46.37
2023-04-30T13:34:17.958Z,41.08
2023-04-30T13:35:20.002Z,45.50
2023-04-30T13:36:22.118Z,43.84
2023-04-30T13:37:23.959Z,42.82